createdAt,value
2022-10-16T00:00:36.681Z,16.21520996
2022-10-16T00:01:37.265Z,16.22528076
2022-10-16T00:02:37.759Z,16.21520996
2022-10-16T00:03:38.188Z,16.18499756
2022-10-16T00:04:38.720Z,16.18499756
2022-10-16T00:05:39.270Z,16.14471436
2022-10-16T00:06:40.231Z,16.13464355
2022-10-16T00:08:11.719Z,16.13464355
2022-10-16T00:09:12.173Z,16.11450195
2022-10-16T00:10:12.660Z,16.10443115
2022-10-16T00:11:13.208Z,16.08428955
2022-10-16T00:12:13.680Z,16.10443115
2022-10-16T00:13:14.211Z,16.11450195
2022-10-16T00:14:14.668Z,16.10443115
2022-10-16T00:15:15.119Z,16.07421875
2022-10-16T00:16:15.664Z,16.06414795
2022-10-16T00:17:17.047Z,16.07421875
2022-10-16T00:18:18.500Z,16.08428955
2022-10-16T00:19:19.065Z,16.08428955
2022-10-16T00:20:19.565Z,16.08428955
2022-10-16T00:21:20.085Z,16.06414795
2022-10-16T00:22:22.789Z,16.04400635
2022-10-16T00:23:23.078Z,16.06414795
2022-10-16T00:24:23.568Z,16.06414795
2022-10-16T00:25:24.036Z,16.06414795
2022-10-16T00:26:24.521Z,16.07421875
2022-10-16T00:27:25.745Z,16.04400635
2022-10-16T00:28:26.290Z,16.04400635
2022-10-16T00:29:26.720Z,16.04400635
2022-10-16T00:30:27.228Z,16.04400635
2022-10-16T00:31:27.714Z,16.04400635
2022-10-16T00:32:28.664Z,16.07421875
2022-10-16T00:33:28.900Z,16.08428955
2022-10-16T00:34:29.404Z,16.10443115
2022-10-16T00:35:29.963Z,16.10443115
2022-10-16T00:36:30.478Z,16.10443115
2022-10-16T00:37:31.703Z,16.07421875
2022-10-16T00:38:32.296Z,16.08428955
2022-10-16T00:39:32.935Z,16.06414795
2022-10-16T00:40:33.451Z,16.06414795
2022-10-16T00:41:34.002Z,16.07421875
2022-10-16T00:42:34.498Z,16.06414795
2022-10-16T00:43:35.059Z,16.06414795
2022-10-16T00:44:36.222Z,16.03393555
2022-10-16T00:45:37.048Z,16.03393555
2022-10-16T00:46:37.851Z,16.03393555
2022-10-16T00:47:39.223Z,15.98358154
2022-10-16T00:49:10.181Z,15.99365234
2022-10-16T00:50:10.702Z,15.99365234
2022-10-16T00:51:11.404Z,15.99365234
2022-10-16T00:52:12.533Z,15.98358154
2022-10-16T00:53:13.143Z,15.99365234
2022-10-16T00:54:13.713Z,15.98358154
2022-10-16T00:55:14.238Z,15.96343994
2022-10-16T00:56:14.810Z,15.96343994
2022-10-16T00:58:16.612Z,15.96343994
2022-10-16T00:59:17.197Z,15.96343994
2022-10-16T01:00:17.672Z,15.96343994
2022-10-16T01:01:18.267Z,15.98358154
2022-10-16T01:02:18.798Z,15.98358154
2022-10-16T01:03:19.419Z,15.98358154
2022-10-16T01:04:20.072Z,15.96343994
2022-10-16T01:05:20.813Z,15.96343994
2022-10-16T01:06:21.400Z,15.95336914
2022-10-16T01:07:21.983Z,15.95336914
2022-10-16T01:08:23.635Z,15.96343994
2022-10-16T01:09:25.278Z,15.93322754
2022-10-16T01:10:25.942Z,15.92315674
2022-10-16T01:11:26.546Z,15.92315674
2022-10-16T01:12:27.055Z,15.93322754
2022-10-16T01:13:27.581Z,15.93322754
2022-10-16T01:14:28.283Z,15.95336914
2022-10-16T01:15:28.920Z,15.92315674
2022-10-16T01:16:29.517Z,15.93322754
2022-10-16T01:17:30.759Z,15.92315674
2022-10-16T01:18:31.295Z,15.92315674
2022-10-16T01:19:31.866Z,15.92315674
2022-10-16T01:20:32.510Z,15.91308594
2022-10-16T01:21:33.205Z,15.92315674
2022-10-16T01:22:33.775Z,15.91308594
2022-10-16T01:23:34.300Z,15.91308594
2022-10-16T01:24:34.888Z,15.92315674
2022-10-16T01:25:35.530Z,15.92315674
2022-10-16T01:26:36.144Z,15.89294434
2022-10-16T01:27:37.311Z,15.91308594
2022-10-16T01:28:37.958Z,15.89294434
2022-10-16T01:29:38.332Z,15.91308594
2022-10-16T01:30:39.330Z,15.88287354
2022-10-16T01:32:10.290Z,15.89294434
2022-10-16T01:33:11.036Z,15.88287354
2022-10-16T01:34:11.596Z,15.88287354
2022-10-16T01:35:12.093Z,15.88287354
2022-10-16T01:36:12.610Z,15.88287354
2022-10-16T01:37:13.289Z,15.86273193
2022-10-16T01:38:14.623Z,15.86273193
2022-10-16T01:39:15.264Z,15.85266113
2022-10-16T01:40:15.788Z,15.85266113
2022-10-16T01:41:16.288Z,15.81237793
2022-10-16T01:42:16.800Z,15.77209473
2022-10-16T01:43:17.538Z,15.76202393
2022-10-16T01:44:18.152Z,15.74188232
2022-10-16T01:45:18.789Z,15.74188232
2022-10-16T01:46:19.334Z,15.73181152
2022-10-16T01:47:19.879Z,15.71166992
2022-10-16T01:48:21.178Z,15.71166992
2022-10-16T01:49:21.809Z,15.71166992
2022-10-16T01:50:22.421Z,15.70159912
2022-10-16T01:51:23.043Z,15.70159912
2022-10-16T01:52:23.870Z,15.67138672
2022-10-16T01:53:24.164Z,15.67138672
2022-10-16T01:54:24.765Z,15.66131592
2022-10-16T01:55:25.417Z,15.66131592
2022-10-16T01:56:26.139Z,15.62103271
2022-10-16T01:57:26.766Z,15.64117432
2022-10-16T01:58:27.989Z,15.64117432
2022-10-16T01:59:28.507Z,15.66131592
2022-10-16T02:00:29.160Z,15.67138672
2022-10-16T02:01:29.854Z,15.68145752
2022-10-16T02:02:30.500Z,15.68145752
2022-10-16T02:03:31.039Z,15.67138672
2022-10-16T02:04:31.558Z,15.67138672
2022-10-16T02:05:32.104Z,15.67138672
2022-10-16T02:06:32.865Z,15.67138672
2022-10-16T02:07:33.558Z,15.67138672
2022-10-16T02:08:35.151Z,15.62103271
2022-10-16T02:09:35.719Z,15.60089111
2022-10-16T02:10:36.350Z,15.58074951
2022-10-16T02:11:36.889Z,15.58074951
2022-10-16T02:12:37.593Z,15.58074951
2022-10-16T02:13:38.269Z,15.58074951
2022-10-16T02:15:10.240Z,15.59082031
2022-10-16T02:16:10.751Z,15.60089111
2022-10-16T02:17:11.304Z,15.60089111
2022-10-16T02:18:12.771Z,15.64117432
2022-10-16T02:19:13.422Z,15.64117432
2022-10-16T02:20:14.077Z,15.64117432
2022-10-16T02:21:14.752Z,15.64117432
2022-10-16T02:22:16.229Z,15.67138672
2022-10-16T02:23:16.727Z,15.67138672
2022-10-16T02:24:17.501Z,15.68145752
2022-10-16T02:25:18.142Z,15.68145752
2022-10-16T02:26:18.749Z,15.70159912
2022-10-16T02:27:19.285Z,15.73181152
2022-10-16T02:28:20.799Z,15.73181152
2022-10-16T02:29:21.479Z,15.74188232
2022-10-16T02:30:22.155Z,15.73181152
2022-10-16T02:31:22.818Z,15.74188232
2022-10-16T02:32:23.713Z,15.74188232
2022-10-16T02:33:24.016Z,15.76202393
2022-10-16T02:34:24.582Z,15.77209473
2022-10-16T02:35:25.260Z,15.78216553
2022-10-16T02:36:25.909Z,15.78216553
2022-10-16T02:37:26.601Z,15.81237793
2022-10-16T02:38:27.754Z,15.81237793
2022-10-16T02:39:28.340Z,15.81237793
2022-10-16T02:40:28.858Z,15.84259033
2022-10-16T02:41:29.617Z,15.81237793
2022-10-16T02:42:30.268Z,15.84259033
2022-10-16T02:43:30.899Z,15.84259033
2022-10-16T02:44:31.492Z,15.84259033
2022-10-16T02:45:32.193Z,15.85266113
2022-10-16T02:46:32.903Z,15.81237793
2022-10-16T02:47:33.618Z,15.84259033
2022-10-16T02:48:35.080Z,15.85266113
2022-10-16T02:49:35.747Z,15.86273193
2022-10-16T02:50:36.260Z,15.86273193
2022-10-16T02:51:36.862Z,15.86273193
2022-10-16T02:52:37.655Z,15.91308594
2022-10-16T02:54:08.917Z,15.92315674
2022-10-16T02:55:09.564Z,15.91308594
2022-10-16T02:56:10.185Z,15.88287354
2022-10-16T02:57:10.604Z,15.86273193
2022-10-16T02:58:11.834Z,15.85266113
2022-10-16T02:59:12.470Z,15.85266113
2022-10-16T03:00:13.184Z,15.84259033
2022-10-16T03:01:13.826Z,15.78216553
2022-10-16T03:02:14.249Z,15.76202393
2022-10-16T03:03:14.775Z,15.76202393
2022-10-16T03:04:15.500Z,15.74188232
2022-10-16T03:05:16.296Z,15.73181152
2022-10-16T03:06:16.780Z,15.74188232
2022-10-16T03:07:17.323Z,15.70159912
2022-10-16T03:08:18.731Z,15.67138672
2022-10-16T03:09:19.250Z,15.64117432
2022-10-16T03:10:19.922Z,15.60089111
2022-10-16T03:11:20.900Z,15.60089111
2022-10-16T03:12:22.242Z,15.59082031
2022-10-16T03:13:22.777Z,15.58074951
2022-10-16T03:14:23.305Z,15.59082031
2022-10-16T03:15:23.907Z,15.60089111
2022-10-16T03:16:24.546Z,15.62103271
2022-10-16T03:17:25.338Z,15.64117432
2022-10-16T03:18:26.716Z,15.66131592
2022-10-16T03:19:27.252Z,15.66131592
2022-10-16T03:20:27.821Z,15.68145752
2022-10-16T03:21:28.426Z,15.70159912
2022-10-16T03:22:29.141Z,15.73181152
2022-10-16T03:24:30.478Z,15.74188232
2022-10-16T03:25:31.058Z,15.74188232
2022-10-16T03:26:31.680Z,15.77209473
2022-10-16T03:27:32.486Z,15.77209473
2022-10-16T03:28:33.872Z,15.77209473
2022-10-16T03:29:34.483Z,15.77209473
2022-10-16T03:30:35.034Z,15.78216553
2022-10-16T03:31:35.670Z,15.78216553
2022-10-16T03:33:36.986Z,15.80230713
2022-10-16T03:35:08.369Z,15.80230713
2022-10-16T03:36:08.975Z,15.80230713
2022-10-16T03:37:09.551Z,15.80230713
2022-10-16T03:38:10.768Z,15.77209473
2022-10-16T03:39:12.318Z,15.77209473
2022-10-16T03:40:13.009Z,15.76202393
2022-10-16T03:41:13.649Z,15.74188232
2022-10-16T03:42:14.290Z,15.73181152
2022-10-16T03:44:15.589Z,15.73181152
2022-10-16T03:45:16.761Z,15.74188232
2022-10-16T03:46:17.411Z,15.73181152
2022-10-16T03:47:17.904Z,15.73181152
2022-10-16T03:48:18.411Z,15.74188232
2022-10-16T03:49:19.489Z,15.76202393
2022-10-16T03:50:20.229Z,15.77209473
2022-10-16T03:51:20.845Z,15.76202393
2022-10-16T03:52:21.502Z,15.76202393
2022-10-16T03:53:22.064Z,15.77209473
2022-10-16T03:54:22.593Z,15.77209473
2022-10-16T03:55:23.116Z,15.78216553
2022-10-16T03:56:23.780Z,15.78216553
2022-10-16T03:57:24.788Z,15.80230713
2022-10-16T03:58:25.028Z,15.80230713
2022-10-16T03:59:26.477Z,15.80230713
2022-10-16T04:00:26.988Z,15.80230713
2022-10-16T04:01:27.644Z,15.80230713
2022-10-16T04:02:28.246Z,15.81237793
2022-10-16T04:03:28.834Z,15.81237793
2022-10-16T04:04:29.429Z,15.80230713
2022-10-16T04:05:29.953Z,15.81237793
2022-10-16T04:06:30.481Z,15.80230713
2022-10-16T04:07:31.144Z,15.80230713
2022-10-16T04:08:31.779Z,15.80230713
2022-10-16T04:09:33.108Z,15.78216553
2022-10-16T04:10:33.616Z,15.80230713
2022-10-16T04:11:34.126Z,15.78216553
2022-10-16T04:12:34.650Z,15.80230713
2022-10-16T04:13:35.315Z,15.77209473
2022-10-16T04:14:36.073Z,15.77209473
2022-10-16T04:15:37.781Z,15.78216553
2022-10-16T04:17:08.626Z,15.76202393
2022-10-16T04:18:09.157Z,15.76202393
2022-10-16T04:19:10.584Z,15.74188232
2022-10-16T04:20:11.260Z,15.77209473
2022-10-16T04:21:11.889Z,15.76202393
2022-10-16T04:22:12.490Z,15.73181152
2022-10-16T04:23:13.155Z,15.73181152
2022-10-16T04:24:13.825Z,15.70159912
2022-10-16T04:25:14.596Z,15.71166992
2022-10-16T04:26:15.251Z,15.73181152
2022-10-16T04:27:15.893Z,15.73181152
2022-10-16T04:28:16.531Z,15.73181152
2022-10-16T04:29:18.037Z,15.73181152
2022-10-16T04:30:18.724Z,15.73181152
2022-10-16T04:31:19.415Z,15.71166992
2022-10-16T04:32:20.093Z,15.73181152
2022-10-16T04:33:20.864Z,15.71166992
2022-10-16T04:34:21.458Z,15.71166992
2022-10-16T04:35:22.068Z,15.73181152
2022-10-16T04:36:24.374Z,15.71166992
2022-10-16T04:37:23.687Z,15.73181152
2022-10-16T04:38:24.170Z,15.71166992
2022-10-16T04:39:25.579Z,15.70159912
2022-10-16T04:40:26.112Z,15.70159912
2022-10-16T04:41:26.705Z,15.71166992
2022-10-16T04:42:27.452Z,15.73181152
2022-10-16T04:44:28.855Z,15.73181152
2022-10-16T04:45:29.365Z,15.73181152
2022-10-16T04:46:30.761Z,15.74188232
2022-10-16T04:47:31.404Z,15.74188232
2022-10-16T04:48:32.110Z,15.76202393
2022-10-16T04:49:33.628Z,15.73181152
2022-10-16T04:50:34.251Z,15.74188232
2022-10-16T04:51:34.873Z,15.76202393
2022-10-16T04:53:36.226Z,15.73181152
2022-10-16T04:55:07.269Z,15.74188232
2022-10-16T04:56:07.886Z,15.73181152
2022-10-16T04:57:08.411Z,15.74188232
2022-10-16T04:58:09.002Z,15.73181152
2022-10-16T04:59:10.381Z,15.74188232
2022-10-16T05:00:10.988Z,15.76202393
2022-10-16T05:01:11.646Z,15.74188232
2022-10-16T05:02:12.269Z,15.76202393
2022-10-16T05:03:12.929Z,15.73181152
2022-10-16T05:04:13.409Z,15.73181152
2022-10-16T05:05:14.093Z,15.71166992
2022-10-16T05:06:14.745Z,15.70159912
2022-10-16T05:07:15.431Z,15.67138672
2022-10-16T05:08:15.966Z,15.64117432
2022-10-16T05:09:17.262Z,15.64117432
2022-10-16T05:10:17.792Z,15.66131592
2022-10-16T05:11:18.462Z,15.62103271
2022-10-16T05:12:19.137Z,15.60089111
2022-10-16T05:13:19.838Z,15.59082031
2022-10-16T05:14:20.670Z,15.58074951
2022-10-16T05:15:21.227Z,15.58074951
2022-10-16T05:16:22.740Z,15.59082031
2022-10-16T05:17:23.956Z,15.58074951
2022-10-16T05:18:24.107Z,15.59082031
2022-10-16T05:19:27.625Z,15.60089111
2022-10-16T05:20:25.838Z,15.60089111
2022-10-16T05:21:26.470Z,15.64117432
2022-10-16T05:22:27.105Z,15.62103271
2022-10-16T05:23:27.743Z,15.62103271
2022-10-16T05:24:28.351Z,15.62103271
2022-10-16T05:25:28.961Z,15.62103271
2022-10-16T05:26:29.622Z,15.62103271
2022-10-16T05:27:30.257Z,15.62103271
2022-10-16T05:28:31.818Z,15.60089111
2022-10-16T05:29:33.299Z,15.60089111
2022-10-16T05:30:33.858Z,15.60089111
2022-10-16T05:31:34.389Z,15.60089111
2022-10-16T05:32:34.931Z,15.58074951
2022-10-16T05:33:35.524Z,15.58074951
2022-10-16T05:35:10.083Z,15.55053711
2022-10-16T05:36:07.403Z,15.55053711
2022-10-16T05:37:07.945Z,15.56060791
2022-10-16T05:38:09.311Z,15.56060791
2022-10-16T05:39:09.931Z,15.56060791
2022-10-16T05:40:11.127Z,15.56060791
2022-10-16T05:41:11.806Z,15.56060791
2022-10-16T05:42:12.493Z,15.58074951
2022-10-16T05:43:13.084Z,15.56060791
2022-10-16T05:44:14.563Z,15.56060791
2022-10-16T05:45:15.244Z,15.55053711
2022-10-16T05:46:15.851Z,15.55053711
2022-10-16T05:47:16.562Z,15.55053711
2022-10-16T05:48:17.184Z,15.56060791
2022-10-16T05:49:19.249Z,15.56060791
2022-10-16T05:50:20.026Z,15.56060791
2022-10-16T05:51:20.967Z,15.55053711
2022-10-16T05:52:21.723Z,15.53039551
2022-10-16T05:53:22.418Z,15.52032471
2022-10-16T05:54:23.597Z,15.52032471
2022-10-16T05:55:24.196Z,15.52032471
2022-10-16T05:56:24.775Z,15.53039551
2022-10-16T05:57:25.964Z,15.53039551
2022-10-16T05:58:26.335Z,15.55053711
2022-10-16T05:59:27.803Z,15.53039551
2022-10-16T06:00:28.390Z,15.53039551
2022-10-16T06:01:29.059Z,15.53039551
2022-10-16T06:02:29.675Z,15.52032471
2022-10-16T06:03:30.375Z,15.53039551
2022-10-16T06:04:31.094Z,15.52032471
2022-10-16T06:05:31.714Z,15.55053711
2022-10-16T06:06:32.297Z,15.55053711
2022-10-16T06:07:32.914Z,15.53039551
2022-10-16T06:08:33.631Z,15.55053711
2022-10-16T06:09:34.852Z,15.56060791
2022-10-16T06:11:06.302Z,15.56060791
2022-10-16T06:12:06.850Z,15.56060791
2022-10-16T06:13:07.439Z,15.58074951
2022-10-16T06:14:08.155Z,15.56060791
2022-10-16T06:15:08.799Z,15.58074951
2022-10-16T06:16:09.514Z,15.59082031
2022-10-16T06:17:11.108Z,15.62103271
2022-10-16T06:18:11.661Z,15.60089111
2022-10-16T06:19:12.282Z,15.62103271
2022-10-16T06:20:13.734Z,15.62103271
2022-10-16T06:21:14.430Z,15.64117432
2022-10-16T06:22:15.166Z,15.66131592
2022-10-16T06:23:15.729Z,15.66131592
2022-10-16T06:24:16.265Z,15.66131592
2022-10-16T06:25:16.845Z,15.66131592
2022-10-16T06:26:17.599Z,15.67138672
2022-10-16T06:27:18.261Z,15.68145752
2022-10-16T06:28:19.038Z,15.68145752
2022-10-16T06:29:19.523Z,15.68145752
2022-10-16T06:30:21.134Z,15.68145752
2022-10-16T06:31:22.024Z,15.70159912
2022-10-16T06:32:22.714Z,15.70159912
2022-10-16T06:33:23.465Z,15.68145752
2022-10-16T06:34:24.040Z,15.70159912
2022-10-16T06:35:24.664Z,15.70159912
2022-10-16T06:36:25.383Z,15.68145752
2022-10-16T06:37:26.412Z,15.71166992
2022-10-16T06:38:26.886Z,15.71166992
2022-10-16T06:39:27.623Z,15.70159912
2022-10-16T06:40:29.087Z,15.70159912
2022-10-16T06:41:29.723Z,15.70159912
2022-10-16T06:42:30.407Z,15.73181152
2022-10-16T06:43:31.173Z,15.74188232
2022-10-16T06:44:31.825Z,15.74188232
2022-10-16T06:45:32.508Z,15.71166992
2022-10-16T06:46:33.756Z,15.68145752
2022-10-16T06:47:34.312Z,15.68145752
2022-10-16T06:48:35.357Z,15.64117432
2022-10-16T06:50:07.126Z,15.64117432
2022-10-16T06:51:08.077Z,15.67138672
2022-10-16T06:52:08.440Z,15.68145752
2022-10-16T06:53:09.022Z,15.66131592
2022-10-16T06:54:10.739Z,15.62103271
2022-10-16T06:55:11.360Z,15.55053711
2022-10-16T06:56:12.056Z,15.4901123
2022-10-16T06:57:12.735Z,15.4397583
2022-10-16T06:58:13.303Z,15.3793335
2022-10-16T06:59:13.897Z,15.4296875
2022-10-16T07:00:15.180Z,15.4397583
2022-10-16T07:01:15.806Z,15.4800415
2022-10-16T07:02:16.494Z,15.51025391
2022-10-16T07:03:17.123Z,15.53039551
2022-10-16T07:04:17.730Z,15.58074951
2022-10-16T07:05:18.255Z,15.56060791
2022-10-16T07:06:18.945Z,15.58074951
2022-10-16T07:07:19.572Z,15.60089111
2022-10-16T07:08:20.206Z,15.64117432
2022-10-16T07:09:20.982Z,15.67138672
2022-10-16T07:10:22.169Z,15.66131592
2022-10-16T07:11:22.760Z,15.68145752
2022-10-16T07:12:23.763Z,15.68145752
2022-10-16T07:13:24.102Z,15.66131592
2022-10-16T07:14:24.785Z,15.68145752
2022-10-16T07:15:25.297Z,15.70159912
2022-10-16T07:16:25.813Z,15.71166992
2022-10-16T07:17:27.003Z,15.74188232
2022-10-16T07:18:27.678Z,15.76202393
2022-10-16T07:19:31.920Z,15.77209473
2022-10-16T07:20:29.654Z,15.78216553
2022-10-16T07:21:30.241Z,15.81237793
2022-10-16T07:22:30.810Z,15.84259033
2022-10-16T07:23:31.479Z,15.84259033
2022-10-16T07:24:32.137Z,15.86273193
2022-10-16T07:25:32.834Z,15.88287354
2022-10-16T07:26:33.478Z,15.89294434
2022-10-16T07:27:34.922Z,15.93322754
2022-10-16T07:29:05.710Z,15.98358154
2022-10-16T07:30:09.150Z,15.96343994
2022-10-16T07:31:08.037Z,15.98358154
2022-10-16T07:32:08.658Z,15.98358154
2022-10-16T07:33:09.243Z,15.99365234
2022-10-16T07:34:09.815Z,15.98358154
2022-10-16T07:35:10.618Z,15.98358154
2022-10-16T07:36:15.848Z,15.98358154
2022-10-16T07:37:11.905Z,15.96343994
2022-10-16T07:38:13.325Z,15.99365234
2022-10-16T07:39:13.859Z,15.98358154
2022-10-16T07:40:15.314Z,15.96343994
2022-10-16T07:41:16.071Z,15.96343994
2022-10-16T07:42:16.812Z,15.98358154
2022-10-16T07:43:17.475Z,15.96343994
2022-10-16T07:44:18.032Z,15.96343994
2022-10-16T07:45:18.582Z,15.98358154
2022-10-16T07:46:19.244Z,15.96343994
2022-10-16T07:47:20.979Z,15.95336914
2022-10-16T07:48:21.709Z,15.93322754
2022-10-16T07:49:22.292Z,15.92315674
2022-10-16T07:50:23.772Z,15.92315674
2022-10-16T07:51:24.357Z,15.92315674
2022-10-16T07:52:25.020Z,15.93322754
2022-10-16T07:53:27.055Z,15.93322754
2022-10-16T07:54:27.139Z,15.92315674
2022-10-16T07:55:27.700Z,15.92315674
2022-10-16T07:56:28.318Z,15.92315674
2022-10-16T07:57:29.172Z,15.95336914
2022-10-16T07:58:29.587Z,15.95336914
2022-10-16T07:59:30.257Z,15.95336914
2022-10-16T08:00:31.665Z,15.93322754
2022-10-16T08:01:32.286Z,15.93322754
2022-10-16T08:02:32.906Z,15.93322754
2022-10-16T08:03:33.540Z,15.93322754
2022-10-16T08:05:05.538Z,15.93322754
2022-10-16T08:06:06.171Z,15.91308594
2022-10-16T08:07:06.731Z,15.91308594
2022-10-16T08:08:07.391Z,15.89294434
2022-10-16T08:09:07.931Z,15.89294434
2022-10-16T08:10:09.316Z,15.86273193
2022-10-16T08:11:09.964Z,15.88287354
2022-10-16T08:12:10.583Z,15.86273193
2022-10-16T08:13:11.153Z,15.85266113
2022-10-16T08:14:12.541Z,15.85266113
2022-10-16T08:15:13.241Z,15.85266113
2022-10-16T08:16:13.894Z,15.84259033
2022-10-16T08:17:14.555Z,15.81237793
2022-10-16T08:18:15.230Z,15.81237793
2022-10-16T08:19:16.568Z,15.80230713
2022-10-16T08:20:17.787Z,15.81237793
2022-10-16T08:21:20.468Z,15.81237793
2022-10-16T08:22:19.083Z,15.81237793
2022-10-16T08:23:19.702Z,15.84259033
2022-10-16T08:24:20.594Z,15.84259033
2022-10-16T08:25:21.120Z,15.81237793
2022-10-16T08:26:21.722Z,15.80230713
2022-10-16T08:27:22.480Z,15.84259033
2022-10-16T08:28:24.245Z,15.84259033
2022-10-16T08:29:24.790Z,15.84259033
2022-10-16T08:30:26.260Z,15.85266113
2022-10-16T08:31:26.846Z,15.85266113
2022-10-16T08:32:27.694Z,15.88287354
2022-10-16T08:33:28.064Z,15.88287354
2022-10-16T08:34:29.580Z,15.91308594
2022-10-16T08:35:30.156Z,15.89294434
2022-10-16T08:36:31.282Z,15.89294434
2022-10-16T08:37:31.925Z,15.92315674
2022-10-16T08:38:32.533Z,15.93322754
2022-10-16T08:40:04.391Z,15.95336914
2022-10-16T08:41:05.499Z,15.96343994
2022-10-16T08:42:06.761Z,15.98358154
2022-10-16T08:43:07.456Z,15.99365234
2022-10-16T08:44:08.067Z,16.03393555
2022-10-16T08:45:08.705Z,16.01379395
2022-10-16T08:46:09.191Z,16.04400635
2022-10-16T08:47:09.670Z,16.06414795
2022-10-16T08:48:10.434Z,16.10443115
2022-10-16T08:49:10.952Z,16.10443115
2022-10-16T08:50:11.613Z,16.11450195
2022-10-16T08:51:13.087Z,16.11450195
2022-10-16T08:52:13.607Z,16.13464355
2022-10-16T08:53:14.108Z,16.16485596
2022-10-16T08:54:14.797Z,16.16485596
2022-10-16T08:55:15.450Z,16.18499756
2022-10-16T08:56:16.054Z,16.21520996
2022-10-16T08:57:21.249Z,16.22528076
2022-10-16T08:58:17.576Z,16.25549316
2022-10-16T08:59:18.183Z,16.26556396
2022-10-16T09:00:18.774Z,16.29577637
2022-10-16T09:01:20.188Z,16.29577637
2022-10-16T09:02:20.835Z,16.32598877
2022-10-16T09:03:21.301Z,16.32598877
2022-10-16T09:04:21.878Z,16.33605957
2022-10-16T09:05:22.586Z,16.35620117
2022-10-16T09:06:23.451Z,16.40655518
2022-10-16T09:07:24.010Z,16.40655518
2022-10-16T09:08:24.520Z,16.41662598
2022-10-16T09:09:25.167Z,16.43676758
2022-10-16T09:10:26.873Z,16.44683838
2022-10-16T09:11:27.516Z,16.47705078
2022-10-16T09:12:29.197Z,16.50726318
2022-10-16T09:13:29.393Z,16.51733398
2022-10-16T09:14:29.953Z,16.54754639
2022-10-16T09:15:30.643Z,16.56768799
2022-10-16T09:16:31.318Z,16.56768799
2022-10-16T09:17:32.859Z,16.61804199
2022-10-16T09:19:03.812Z,16.62811279
2022-10-16T09:20:04.334Z,16.6583252
2022-10-16T09:21:05.667Z,16.668396
2022-10-16T09:22:06.305Z,16.6986084
2022-10-16T09:23:07.224Z,16.7489624
2022-10-16T09:24:07.897Z,16.7489624
2022-10-16T09:25:08.326Z,16.7791748
2022-10-16T09:26:08.985Z,16.80938721
2022-10-16T09:27:10.207Z,16.83959961
2022-10-16T09:28:10.909Z,16.87988281
2022-10-16T09:29:12.090Z,16.87988281
2022-10-16T09:30:12.533Z,16.91009521
2022-10-16T09:31:14.208Z,16.95037842
2022-10-16T09:32:14.977Z,16.98059082
2022-10-16T09:33:15.694Z,17.00073242
2022-10-16T09:34:16.304Z,17.03094482
2022-10-16T09:35:16.895Z,17.07122803
2022-10-16T09:36:17.409Z,17.09136963
2022-10-16T09:37:18.092Z,17.12158203
2022-10-16T09:38:18.790Z,17.17193604
2022-10-16T09:39:19.486Z,17.20214844
2022-10-16T09:40:19.960Z,17.21221924
2022-10-16T09:41:21.070Z,17.24243164
2022-10-16T09:42:21.788Z,17.27264404
2022-10-16T09:43:22.443Z,17.28271484
2022-10-16T09:44:23.094Z,17.33306885
2022-10-16T09:45:24.260Z,17.36328125
2022-10-16T09:46:24.773Z,17.38342285
2022-10-16T09:47:25.564Z,17.40356445
2022-10-16T09:48:25.997Z,17.43377686
2022-10-16T09:49:27.128Z,17.46398926
2022-10-16T09:50:27.690Z,17.49420166
2022-10-16T09:51:28.241Z,17.49420166
2022-10-16T09:52:29.516Z,17.49420166
2022-10-16T09:53:30.547Z,17.53448486
2022-10-16T09:54:31.129Z,17.54455566
2022-10-16T09:55:31.722Z,17.54455566
2022-10-16T09:56:32.251Z,17.55462646
2022-10-16T09:58:04.320Z,17.57476807
2022-10-16T09:59:05.103Z,17.60498047
2022-10-16T10:00:05.976Z,17.60498047
2022-10-16T10:01:07.355Z,17.62512207
2022-10-16T10:02:08.061Z,17.64526367
2022-10-16T10:03:08.546Z,17.67547607
2022-10-16T10:04:09.037Z,17.72583008
2022-10-16T10:05:09.773Z,17.73590088
2022-10-16T10:06:10.623Z,17.75604248
2022-10-16T10:07:11.294Z,17.76611328
2022-10-16T10:08:11.796Z,17.79632568
2022-10-16T10:09:12.414Z,17.82653809
2022-10-16T10:10:13.142Z,17.83660889
2022-10-16T10:11:16.122Z,17.85675049
2022-10-16T10:12:15.127Z,17.86682129
2022-10-16T10:13:15.734Z,17.90710449
2022-10-16T10:14:16.229Z,17.93731689
2022-10-16T10:15:16.879Z,17.93731689
2022-10-16T10:16:17.499Z,17.9776001
2022-10-16T10:17:18.192Z,17.9776001
2022-10-16T10:18:18.687Z,17.9876709
2022-10-16T10:19:19.188Z,18.0078125
2022-10-16T10:20:19.792Z,18.0380249
2022-10-16T10:21:20.723Z,18.0480957
2022-10-16T10:22:22.135Z,18.09844971
2022-10-16T10:23:22.676Z,18.10852051
2022-10-16T10:24:24.107Z,18.12866211
2022-10-16T10:25:24.680Z,18.13873291
2022-10-16T10:26:25.374Z,18.16894531
2022-10-16T10:27:26.082Z,18.18908691
2022-10-16T10:28:26.661Z,18.19915771
2022-10-16T10:29:27.272Z,18.22937012
2022-10-16T10:30:28.153Z,18.24951172
2022-10-16T10:31:28.810Z,18.24951172
2022-10-16T10:32:30.234Z,18.25958252
2022-10-16T10:33:30.596Z,18.27972412
2022-10-16T10:34:31.244Z,18.28979492
2022-10-16T10:35:31.775Z,18.34014893
2022-10-16T10:37:03.647Z,18.36029053
2022-10-16T10:38:04.184Z,18.38043213
2022-10-16T10:39:04.877Z,18.41064453
2022-10-16T10:40:05.582Z,18.44085693
2022-10-16T10:41:06.838Z,18.42071533
2022-10-16T10:42:07.413Z,18.44085693
2022-10-16T10:43:08.020Z,18.47106934
2022-10-16T10:44:09.334Z,18.47106934
2022-10-16T10:45:09.939Z,18.50128174
2022-10-16T10:46:10.713Z,18.53149414
2022-10-16T10:47:11.331Z,18.53149414
2022-10-16T10:48:12.131Z,18.56170654
2022-10-16T10:49:12.685Z,18.56170654
2022-10-16T10:50:14.000Z,18.57177734
2022-10-16T10:51:15.316Z,18.59191895
2022-10-16T10:52:16.059Z,18.59191895
2022-10-16T10:53:16.614Z,18.57177734
2022-10-16T10:54:17.172Z,18.59191895
2022-10-16T10:55:17.974Z,18.62213135
2022-10-16T10:56:18.612Z,18.60198975
2022-10-16T10:57:19.295Z,18.64227295
2022-10-16T10:58:20.490Z,18.65234375
2022-10-16T10:59:21.059Z,18.65234375
2022-10-16T11:00:21.599Z,18.66241455
2022-10-16T11:01:22.834Z,18.68255615
2022-10-16T11:02:23.384Z,18.69262695
2022-10-16T11:03:23.959Z,18.72283936
2022-10-16T11:04:24.512Z,18.74298096
2022-10-16T11:05:25.123Z,18.75305176
2022-10-16T11:06:25.667Z,18.78326416
2022-10-16T11:07:26.423Z,18.82354736
2022-10-16T11:08:27.695Z,18.86383057
2022-10-16T11:09:28.311Z,18.86383057
2022-10-16T11:10:28.883Z,18.91418457